createdAt,value
2022-09-16T00:02:39.996Z,13.4
2022-09-16T00:07:42.532Z,13.3
2022-09-16T00:12:38.898Z,13.3
2022-09-16T00:18:19.363Z,13.3
2022-09-16T00:23:01.676Z,13.2
2022-09-16T00:28:08.076Z,13.2
2022-09-16T00:33:18.481Z,13.2
2022-09-16T00:38:45.030Z,13.1
2022-09-16T00:43:47.380Z,13.1
2022-09-16T00:48:33.717Z,13.1
2022-09-16T00:53:43.074Z,13.0
2022-09-16T00:59:27.603Z,13.0
2022-09-16T01:05:47.101Z,13.0
2022-09-16T01:09:41.341Z,13.0
2022-09-16T01:14:37.739Z,12.9
2022-09-16T01:19:44.185Z,12.9
2022-09-16T01:24:50.566Z,12.9
2022-09-16T01:30:07.017Z,12.9
2022-09-16T01:35:37.413Z,12.8
2022-09-16T01:40:19.879Z,12.8
2022-09-16T01:45:16.198Z,12.8
2022-09-16T01:57:12.278Z,12.7
2022-09-16T02:00:46.515Z,12.7
2022-09-16T02:05:52.867Z,12.7
2022-09-16T02:10:59.285Z,12.7
2022-09-16T02:16:05.801Z,12.7
2022-09-16T02:21:12.161Z,12.7
2022-09-16T02:26:18.636Z,12.7
2022-09-16T02:31:15.120Z,12.6
2022-09-16T02:36:21.435Z,12.6
2022-09-16T02:41:37.839Z,12.6
2022-09-16T02:46:34.275Z,12.6
2022-09-16T02:51:40.605Z,12.6
2022-09-16T02:57:21.039Z,12.6
2022-09-16T03:02:03.484Z,12.5
2022-09-16T03:07:29.799Z,12.5
2022-09-16T03:12:16.136Z,12.5
2022-09-16T03:17:12.598Z,12.5
2022-09-16T03:22:18.944Z,12.4
2022-09-16T03:27:35.367Z,12.4
2022-09-16T03:33:53.936Z,12.4
2022-09-16T03:39:00.290Z,12.4
2022-09-16T03:42:54.555Z,12.4
2022-09-16T03:48:00.981Z,12.3
2022-09-16T03:52:57.362Z,12.3
2022-09-16T03:58:13.751Z,12.3
2022-09-16T04:03:20.326Z,12.3
2022-09-16T04:08:26.667Z,12.3
2022-09-16T04:13:33.046Z,12.2
2022-09-16T04:18:39.452Z,12.2
2022-09-16T04:23:45.874Z,12.2
2022-09-16T04:29:12.290Z,12.2
2022-09-16T04:33:48.599Z,12.1
2022-09-16T04:39:05.135Z,12.1
2022-09-16T04:44:01.634Z,12.1
2022-09-16T04:49:18.039Z,12.1
2022-09-16T04:54:24.457Z,12.1
2022-09-16T04:59:30.811Z,12.0
2022-09-16T05:04:41.200Z,12.0
2022-09-16T05:09:43.603Z,12.0
2022-09-16T05:14:49.984Z,11.9
2022-09-16T05:20:00.396Z,11.9
2022-09-16T05:24:52.880Z,11.9
2022-09-16T05:30:09.150Z,11.8
2022-09-16T05:35:15.641Z,11.8
2022-09-16T05:40:12.299Z,11.8
2022-09-16T05:45:32.183Z,11.8
2022-09-16T05:50:36.547Z,11.8
2022-09-16T05:55:43.052Z,11.8
2022-09-16T06:00:39.294Z,11.9
2022-09-16T06:05:55.697Z,11.9
2022-09-16T06:11:23.859Z,12.0
2022-09-16T06:16:00.145Z,12.1
2022-09-16T06:22:05.533Z,12.2
2022-09-16T06:27:13.135Z,12.2
2022-09-16T06:32:19.400Z,12.2
2022-09-16T06:37:25.868Z,12.3
2022-09-16T06:42:32.479Z,12.3
2022-09-16T06:47:38.723Z,12.3
2022-09-16T06:52:46.810Z,12.3
2022-09-16T06:57:52.312Z,12.3
2022-09-16T07:02:59.582Z,12.4
2022-09-16T07:08:05.973Z,12.4
2022-09-16T07:18:18.902Z,12.5
2022-09-16T07:23:25.363Z,12.6
2022-09-16T07:28:32.006Z,12.7
2022-09-16T07:33:38.251Z,12.9
2022-09-16T07:38:44.630Z,13.4
2022-09-16T07:43:51.137Z,14.0
2022-09-16T07:48:57.487Z,14.9
2022-09-16T07:54:03.853Z,15.9
2022-09-16T07:59:13.064Z,17.0
2022-09-16T08:04:06.623Z,17.9
2022-09-16T08:09:41.346Z,18.9
2022-09-16T08:14:43.668Z,19.9
2022-09-16T08:19:35.905Z,20.4
2022-09-16T08:24:56.306Z,21.3
2022-09-16T08:40:36.540Z,23.7
2022-09-16T08:46:07.311Z,24.4
2022-09-16T08:51:13.579Z,24.9
2022-09-16T08:56:15.912Z,25.6
2022-09-16T09:01:02.426Z,26.1
2022-09-16T09:05:58.774Z,26.7
2022-09-16T09:22:03.015Z,26.9
2022-09-16T09:27:09.318Z,26.7
2022-09-16T09:32:15.807Z,26.9
2022-09-16T09:37:22.424Z,27.1
2022-09-16T09:42:37.259Z,27.4
2022-09-16T09:47:36.665Z,27.8
2022-09-16T09:53:07.194Z,28.1
2022-09-16T09:57:52.311Z,28.3
2022-09-16T10:02:58.664Z,28.4
2022-09-16T10:14:27.712Z,28.2
2022-09-16T10:19:49.976Z,28.2
2022-09-16T10:20:42.067Z,28.3
2022-09-16T10:29:34.093Z,28.6
2022-09-16T10:34:30.445Z,28.9
2022-09-16T10:39:22.810Z,29.0
2022-09-16T10:45:31.452Z,29.2
2022-09-16T10:49:35.695Z,29.3
2022-09-16T11:04:54.982Z,29.0
2022-09-16T11:10:01.369Z,29.0
2022-09-16T11:15:51.928Z,29.0
2022-09-16T11:20:34.373Z,29.1
2022-09-16T11:25:20.601Z,29.0
2022-09-16T11:30:26.969Z,28.8
2022-09-16T11:35:53.533Z,28.3
2022-09-16T11:40:29.941Z,28.0
2022-09-16T11:45:46.286Z,27.9
2022-09-16T11:50:52.703Z,27.9
2022-09-16T12:01:04.531Z,28.4
2022-09-16T12:06:11.938Z,28.7
2022-09-16T12:11:18.471Z,29.0
2022-09-16T12:16:28.080Z,29.2
2022-09-16T12:21:57.911Z,29.4
2022-09-16T12:26:37.765Z,29.6
2022-09-16T12:31:33.253Z,29.6
2022-09-16T12:36:50.627Z,29.7
2022-09-16T12:41:57.213Z,29.7
2022-09-16T12:52:09.988Z,29.4
2022-09-16T12:57:20.559Z,29.2
2022-09-16T13:02:22.880Z,28.9
2022-09-16T13:07:29.235Z,28.8
2022-09-16T13:12:41.522Z,28.7
2022-09-16T13:17:42.099Z,28.6
2022-09-16T13:23:08.628Z,28.6
2022-09-16T13:27:55.100Z,28.5
2022-09-16T13:33:01.345Z,28.5
2022-09-16T13:38:07.735Z,28.4
2022-09-16T13:43:34.294Z,28.4
2022-09-16T13:48:20.512Z,28.3
2022-09-16T13:53:47.033Z,28.1
2022-09-16T13:58:33.394Z,28.0
2022-09-16T14:03:59.931Z,27.9
2022-09-16T14:08:46.212Z,27.9
2022-09-16T14:13:42.571Z,27.7
2022-09-16T14:18:58.976Z,27.5
2022-09-16T14:24:09.572Z,27.2
2022-09-16T14:29:10.837Z,26.9
2022-09-16T14:34:18.287Z,26.5
2022-09-16T14:39:24.797Z,26.1
2022-09-16T14:44:31.058Z,25.7
2022-09-16T14:49:41.469Z,25.3
2022-09-16T14:54:47.970Z,24.8
2022-09-16T14:59:40.240Z,24.4
2022-09-16T15:04:56.672Z,24.0
2022-09-16T15:11:30.000Z,23.6
2022-09-16T15:15:42.763Z,23.3
2022-09-16T15:23:08.588Z,22.9
2022-09-16T15:25:31.456Z,22.6
2022-09-16T15:30:23.930Z,22.2
2022-09-16T15:36:00.248Z,21.9
2022-09-16T15:42:18.764Z,21.6
2022-09-16T15:46:37.286Z,21.4
2022-09-16T15:50:58.376Z,21.1
2022-09-16T15:56:05.785Z,21.0
2022-09-16T16:01:12.250Z,20.7
2022-09-16T16:06:18.660Z,20.5
2022-09-16T16:11:24.928Z,20.3
2022-09-16T16:16:31.317Z,20.2
2022-09-16T16:21:57.867Z,20.0
2022-09-16T16:26:44.109Z,19.9
2022-09-16T16:31:50.480Z,19.7
2022-09-16T16:36:56.848Z,19.6
2022-09-16T16:42:07.376Z,19.5
2022-09-16T16:47:08.632Z,19.4
2022-09-16T16:55:24.422Z,19.2
2022-09-16T17:02:32.812Z,18.9
2022-09-16T17:07:38.633Z,18.7
2022-09-16T17:17:56.105Z,18.4
2022-09-16T17:22:59.395Z,18.3
2022-09-16T17:33:12.365Z,18.0
2022-09-16T17:38:39.275Z,17.8
2022-09-16T17:43:32.309Z,17.7
2022-09-16T17:48:46.222Z,17.5
2022-09-16T17:53:57.633Z,17.3
2022-09-16T17:58:44.910Z,17.2
2022-09-16T18:03:51.614Z,17.0
2022-09-16T18:09:34.864Z,16.7
2022-09-16T18:14:42.301Z,16.7
2022-09-16T18:19:48.839Z,16.6
2022-09-16T18:24:54.143Z,16.4
2022-09-16T18:30:03.141Z,16.3
2022-09-16T18:35:29.708Z,16.2
2022-09-16T18:40:06.126Z,16.1
2022-09-16T18:45:22.508Z,16.0
2022-09-16T18:55:35.373Z,15.8
2022-09-16T19:00:41.767Z,15.7
2022-09-16T19:05:48.431Z,15.6
2022-09-16T19:10:54.743Z,15.5
2022-09-16T19:16:01.194Z,15.4
2022-09-16T19:21:06.739Z,15.3
2022-09-16T19:26:38.774Z,15.3
2022-09-16T19:36:29.485Z,15.2
2022-09-16T19:41:27.328Z,15.1
2022-09-16T19:46:43.768Z,15.0
2022-09-16T19:52:14.355Z,15.0
2022-09-16T19:56:50.482Z,14.9
2022-09-16T20:02:42.337Z,14.8
2022-09-16T20:07:49.855Z,14.8
2022-09-16T20:12:59.406Z,14.7
2022-09-16T20:18:02.600Z,14.7
2022-09-16T20:23:09.136Z,14.6
2022-09-16T20:33:22.921Z,14.5
2022-09-16T20:33:56.972Z,14.6
2022-09-16T20:38:54.085Z,14.5
2022-09-16T20:43:36.361Z,14.4
2022-09-16T20:49:02.825Z,14.4
2022-09-16T20:53:49.229Z,14.3
2022-09-16T20:59:20.529Z,14.2
2022-09-16T21:04:02.809Z,14.2
2022-09-16T21:09:09.251Z,14.1
2022-09-16T21:14:39.851Z,14.1
2022-09-16T21:19:22.151Z,14.0
2022-09-16T21:24:28.572Z,13.9
2022-09-16T21:29:35.087Z,13.9
2022-09-16T21:34:41.697Z,13.8
2022-09-16T21:40:12.100Z,13.7
2022-09-16T21:45:18.452Z,13.6
2022-09-16T21:50:00.965Z,13.6
2022-09-16T21:55:07.273Z,13.6
2022-09-16T22:05:20.186Z,13.5
2022-09-16T22:10:27.583Z,13.4
2022-09-16T22:15:34.060Z,13.3
2022-09-16T22:20:40.490Z,13.3
2022-09-16T22:25:46.769Z,13.2
2022-09-16T22:30:53.305Z,13.2
2022-09-16T22:35:59.666Z,13.1
2022-09-16T22:41:05.985Z,13.1
2022-09-16T22:46:12.549Z,13.0
2022-09-16T22:51:39.008Z,13.0
2022-09-16T22:56:25.228Z,13.0
2022-09-16T23:01:31.652Z,12.9
2022-09-16T23:06:52.138Z,12.9
2022-09-16T23:11:47.491Z,12.9
2022-09-16T23:16:53.985Z,12.8
2022-09-16T23:22:00.575Z,12.8
2022-09-16T23:27:06.861Z,12.7
2022-09-16T23:32:13.243Z,12.6
2022-09-16T23:37:19.751Z,12.6
2022-09-16T23:42:26.014Z,12.5
2022-09-16T23:47:32.472Z,12.5
2022-09-16T23:52:39.084Z,12.5
2022-09-16T23:57:35.327Z,12.4
